Time;durP1;ratioP1;P1;durP2;ratioP2;P2;SDS_P1;SDS_P2;PMS_P1;PMS_P2;Temp;Humidity;BMP_temperature;BMP_pressure;BME280_temperature;BME280_humidity;BME280_pressure;Samples;Min_cycle;Max_cycle;Signal;HPM_P1;HPM_P2
2021/04/12 00:00:27;;;;;;;2.30;1.00;;;;;;;9.60;94.75;95771.59;1036171;28;20024;-48
2021/04/12 00:01:05;;;;;;;2.38;1.00;;;;;;;9.56;94.09;95762.47;1040424;28;20478;-47
2021/04/12 00:01:45;;;;;;;1.80;1.02;;;;;;;9.51;94.31;95768.31;1036279;28;20504;-47
2021/04/12 00:02:40;;;;;;;2.05;1.02;;;;;;;9.39;95.81;95767.25;1032332;28;20046;-47
2021/04/12 00:03:24;;;;;;;3.20;1.27;;;;;;;9.41;94.93;95767.88;1028987;28;20030;-47
2021/04/12 00:04:07;;;;;;;1.95;1.00;;;;;;;9.38;95.48;95761.22;1029644;28;20457;-48
2021/04/12 00:05:17;;;;;;;1.83;1.00;;;;;;;9.34;95.29;95764.44;1029819;28;20117;-47
2021/04/12 00:06:06;;;;;;;2.80;1.20;;;;;;;9.36;95.91;95754.53;1031296;28;20044;-47
2021/04/12 00:06:44;;;;;;;2.28;1.20;;;;;;;9.35;95.24;95758.97;1035825;28;20026;-48
2021/04/12 00:07:23;;;;;;;1.92;1.00;;;;;;;9.35;95.48;95758.97;1028229;28;20105;-48
2021/04/12 00:08:28;;;;;;;1.80;1.08;;;;;;;9.47;95.35;95764.44;1028347;28;20373;-47
2021/04/12 00:09:05;;;;;;;2.05;1.20;;;;;;;9.45;94.72;95761.22;1022405;29;20035;-46
2021/04/12 00:09:47;;;;;;;2.20;1.20;;;;;;;9.53;94.28;95761.03;1022378;29;20036;-49
2021/04/12 00:10:48;;;;;;;2.33;1.27;;;;;;;9.42;94.38;95759.78;1023925;29;20023;-48
2021/04/12 00:11:42;;;;;;;2.20;1.20;;;;;;;9.28;94.87;95758.13;1021751;29;20036;-48
2021/04/12 00:12:37;;;;;;;2.10;1.10;;;;;;;9.26;95.18;95760.13;1024214;29;20474;-47
2021/04/12 00:13:09;;;;;;;2.30;1.00;;;;;;;9.31;94.51;95756.94;1026543;28;20027;-47
2021/04/12 00:13:46;;;;;;;1.95;1.10;;;;;;;9.39;94.57;95756.75;1028112;28;20030;-48
2021/04/12 00:14:30;;;;;;;2.13;1.30;;;;;;;9.45;93.83;95760.41;1020394;29;20422;-47
2021/04/12 00:15:08;;;;;;;2.38;1.20;;;;;;;9.39;94.18;95762.00;1012460;29;20531;-48
2021/04/12 00:15:46;;;;;;;2.22;1.08;;;;;;;9.27;94.61;95767.00;1012659;29;20032;-47
2021/04/12 00:16:27;;;;;;;2.00;1.10;;;;;;;9.18;95.00;95761.09;1016164;29;20032;-48
2021/04/12 00:17:15;;;;;;;2.47;1.30;;;;;;;9.14;95.31;95761.69;1012410;29;20379;-46
2021/04/12 00:17:46;;;;;;;2.00;1.10;;;;;;;9.18;95.31;95762.94;1012714;29;20043;-47
2021/04/12 00:18:21;;;;;;;1.40;0.80;;;;;;;9.22;95.35;95759.72;1012365;29;20038;-47
2021/04/12 00:19:00;;;;;;;2.15;1.10;;;;;;;9.26;95.08;95754.88;1008544;29;20125;-46
2021/04/12 00:19:45;;;;;;;2.30;1.20;;;;;;;9.29;94.85;95767.59;1008795;29;20097;-49
2021/04/12 00:20:38;;;;;;;2.83;1.35;;;;;;;9.35;94.12;95756.34;1016532;29;20054;-47
2021/04/12 00:21:13;;;;;;;2.00;1.05;;;;;;;9.40;93.71;95758.38;1015740;29;20028;-49
2021/04/12 00:22:31;;;;;;;2.95;1.50;;;;;;;9.31;94.24;95749.06;1016377;29;20048;-47
2021/04/12 00:23:08;;;;;;;2.05;1.13;;;;;;;9.31;94.30;95755.09;1024178;29;20027;-47
2021/04/12 00:23:46;;;;;;;2.45;1.20;;;;;;;9.34;94.72;95759.16;1016795;29;20043;-48
2021/04/12 00:24:23;;;;;;;2.42;1.30;;;;;;;9.36;93.95;95755.31;1016695;29;20035;-47
2021/04/12 00:25:01;;;;;;;2.25;1.10;;;;;;;9.40;93.67;95761.00;1016470;29;20032;-48
2021/04/12 00:25:43;;;;;;;2.80;1.13;;;;;;;9.41;93.84;95758.19;1016215;29;20052;-53
2021/04/12 00:26:32;;;;;;;2.83;1.20;;;;;;;9.36;94.47;95757.94;1016466;29;20067;-47
2021/04/12 00:27:13;;;;;;;2.15;1.10;;;;;;;9.27;94.62;95758.31;1016045;29;20028;-49
2021/04/12 00:27:47;;;;;;;3.03;1.30;;;;;;;9.27;94.43;95766.22;1016138;29;20034;-48
2021/04/12 00:28:21;;;;;;;3.15;1.30;;;;;;;9.30;94.63;95768.44;1020317;29;20360;-46
2021/04/12 00:28:57;;;;;;;2.17;1.17;;;;;;;9.26;94.25;95775.88;1019749;29;20020;-48
2021/04/12 00:29:33;;;;;;;1.80;1.10;;;;;;;9.27;94.62;95767.00;1019938;29;20023;-47
2021/04/12 00:30:18;;;;;;;2.13;1.25;;;;;;;9.33;94.08;95778.56;1012248;29;20357;-47
2021/04/12 00:30:53;;;;;;;2.25;1.20;;;;;;;9.37;93.59;95771.91;1008289;29;20060;-48
2021/04/12 00:31:27;;;;;;;2.70;1.20;;;;;;;9.45;93.33;95781.44;1008342;29;20120;-48
2021/04/12 00:32:06;;;;;;;2.42;1.17;;;;;;;9.45;93.02;95778.81;1016036;29;20019;-48
2021/04/12 00:32:40;;;;;;;5.13;1.20;;;;;;;9.47;93.43;95776.78;1022450;29;20437;-48
2021/04/12 00:33:55;;;;;;;2.28;1.10;;;;;;;9.56;93.02;95779.03;1016106;29;20024;-47
2021/04/12 00:34:43;;;;;;;2.20;1.10;;;;;;;9.49;93.77;95775.59;1009811;29;20017;-47
2021/04/12 00:35:28;;;;;;;2.15;1.20;;;;;;;9.39;93.34;95781.19;1014126;29;20119;-47
2021/04/12 00:36:39;;;;;;;2.85;1.20;;;;;;;9.36;93.40;95775.53;1016215;29;20024;-50
2021/04/12 00:37:27;;;;;;;1.75;1.00;;;;;;;9.36;93.18;95762.41;1016083;29;20547;-50
2021/04/12 00:38:06;;;;;;;2.38;1.27;;;;;;;9.32;93.35;95774.31;1020065;29;20023;-49
2021/04/12 00:38:57;;;;;;;2.40;1.30;;;;;;;9.28;94.37;95771.25;1021979;29;20027;-49
2021/04/12 00:39:56;;;;;;;2.70;1.40;;;;;;;9.40;93.81;95772.31;1024076;29;20038;-46
2021/04/12 00:40:59;;;;;;;2.50;1.35;;;;;;;9.44;92.87;95772.72;1015788;29;20131;-47
2021/04/12 00:41:54;;;;;;;2.30;1.30;;;;;;;9.43;92.86;95771.13;1031803;28;20211;-48
2021/04/12 00:42:47;;;;;;;3.25;1.52;;;;;;;9.37;93.19;95769.28;1028729;28;20048;-47
2021/04/12 00:43:30;;;;;;;3.00;1.60;;;;;;;9.30;93.70;95771.88;1036465;28;20034;-50
2021/04/12 00:44:09;;;;;;;3.53;1.33;;;;;;;9.27;93.92;95781.97;1032033;28;20026;-47
2021/04/12 00:45:16;;;;;;;2.83;1.50;;;;;;;9.17;94.61;95780.50;1031285;28;20034;-49
2021/04/12 00:46:24;;;;;;;2.42;1.40;;;;;;;9.18;94.75;95776.84;1032724;28;20019;-46
2021/04/12 00:47:00;;;;;;;2.80;1.60;;;;;;;9.16;94.77;95784.13;1036207;28;20048;-48
2021/04/12 00:48:06;;;;;;;2.80;1.45;;;;;;;9.13;95.10;95781.91;1032351;28;20026;-48
2021/04/12 00:49:00;;;;;;;2.70;1.60;;;;;;;9.05;95.95;95782.88;1035843;28;20471;-48
2021/04/12 00:49:41;;;;;;;2.55;1.52;;;;;;;9.02;96.14;95780.63;1044357;28;20118;-47
2021/04/12 00:50:26;;;;;;;2.40;1.40;;;;;;;9.10;96.16;95782.28;1040367;28;20029;-47
2021/04/12 00:51:18;;;;;;;2.63;1.55;;;;;;;9.14;95.32;95783.53;1036211;28;20041;-47
2021/04/12 00:51:54;;;;;;;2.97;1.60;;;;;;;9.24;94.76;95781.34;1033078;28;20546;-48
2021/04/12 00:53:01;;;;;;;2.88;1.60;;;;;;;9.31;94.69;95791.09;1032127;28;20528;-50
2021/04/12 00:53:57;;;;;;;2.80;1.52;;;;;;;9.21;95.12;95781.72;1036325;28;20116;-49
2021/04/12 00:54:37;;;;;;;3.38;1.80;;;;;;;9.30;94.62;95792.09;1036236;28;20077;-47
2021/04/12 00:55:27;;;;;;;3.22;1.67;;;;;;;9.30;94.80;95787.63;1036565;28;20022;-50
2021/04/12 00:56:07;;;;;;;2.97;1.77;;;;;;;9.29;94.60;95785.19;1032474;28;20432;-49
2021/04/12 00:56:57;;;;;;;2.55;1.55;;;;;;;9.30;95.01;95795.50;1028510;28;20363;-48
2021/04/12 00:57:36;;;;;;;3.40;1.85;;;;;;;9.23;95.34;95798.13;1032490;28;20027;-50
2021/04/12 00:58:27;;;;;;;2.90;1.85;;;;;;;9.06;95.82;95799.44;1033057;28;20463;-46
2021/04/12 00:59:18;;;;;;;2.80;1.80;;;;;;;9.06;96.31;95800.25;1033610;28;20412;-47
2021/04/12 01:00:11;;;;;;;2.97;2.00;;;;;;;9.09;96.85;95801.66;1036349;28;20022;-46
2021/04/12 01:01:08;;;;;;;3.05;2.05;;;;;;;9.02;97.49;95803.47;1039643;28;20040;-47
2021/04/12 01:01:43;;;;;;;2.85;1.85;;;;;;;9.14;96.96;95803.72;1037515;28;20049;-48
2021/04/12 01:02:34;;;;;;;2.83;1.83;;;;;;;9.12;96.96;95798.66;1040660;28;20036;-47
2021/04/12 01:03:36;;;;;;;3.35;2.15;;;;;;;9.17;96.36;95806.78;1040531;28;20104;-48
2021/04/12 01:04:30;;;;;;;3.40;2.20;;;;;;;9.05;97.29;95808.31;1039409;28;20033;-47
2021/04/12 01:05:13;;;;;;;3.25;2.20;;;;;;;9.13;97.03;95807.34;1036589;28;20470;-47
2021/04/12 01:05:50;;;;;;;2.92;2.00;;;;;;;9.12;96.46;95813.59;1035657;28;20068;-48
2021/04/12 01:07:08;;;;;;;3.22;2.20;;;;;;;9.03;97.79;95810.31;1036706;28;20567;-47
2021/04/12 01:08:06;;;;;;;3.40;2.17;;;;;;;8.98;98.29;95813.53;1036510;28;20030;-50
2021/04/12 01:08:53;;;;;;;3.00;2.00;;;;;;;8.87;98.34;95814.88;1036228;28;20478;-48
2021/04/12 01:10:00;;;;;;;3.25;2.20;;;;;;;8.97;98.75;95813.72;1033034;28;20042;-47
2021/04/12 01:10:35;;;;;;;4.10;2.33;;;;;;;8.90;98.78;95811.06;1039621;28;20017;-49
2021/04/12 01:11:38;;;;;;;3.70;2.10;;;;;;;8.94;99.15;95819.34;1038307;28;20026;-49
2021/04/12 01:12:38;;;;;;;3.42;2.20;;;;;;;8.97;99.78;95817.13;1040570;28;20120;-46
2021/04/12 01:13:32;;;;;;;3.70;2.75;;;;;;;8.92;99.86;95821.38;1040536;28;20506;-46
2021/04/12 01:14:25;;;;;;;4.45;3.55;;;;;;;8.98;100.00;95821.41;1040505;28;20029;-49
2021/04/12 01:15:24;;;;;;;6.85;5.78;;;;;;;8.88;100.00;95820.91;1036330;28;20056;-46
2021/04/12 01:16:17;;;;;;;8.63;6.32;;;;;;;8.87;100.00;95809.63;1028229;28;20041;-49
2021/04/12 01:17:09;;;;;;;6.93;6.22;;;;;;;8.94;100.00;95814.09;1029826;28;20019;-49
2021/04/12 01:17:45;;;;;;;8.82;7.90;;;;;;;8.65;100.00;95810.66;1032898;28;20072;-47
2021/04/12 01:18:36;;;;;;;9.77;8.88;;;;;;;8.50;100.00;95811.56;1029570;28;20033;-48
2021/04/12 01:19:09;;;;;;;;;;;;;;;8.57;100.00;95810.81;1037365;28;20300;-47
2021/04/12 01:19:43;;;;;;;9.75;8.85;;;;;;;8.63;100.00;95808.22;1037139;28;19909;-49
2021/04/12 01:20:27;;;;;;;10.43;9.43;;;;;;;8.66;100.00;95820.16;1032223;28;20465;-48
2021/04/12 01:21:07;;;;;;;9.82;8.93;;;;;;;8.61;100.00;95812.88;1033020;28;20057;-50
2021/04/12 01:21:58;;;;;;;10.45;9.07;;;;;;;8.48;100.00;95820.63;1029220;28;20105;-46
2021/04/12 01:22:57;;;;;;;10.15;9.23;;;;;;;8.38;100.00;95814.84;1037192;28;20345;-52
2021/04/12 01:23:32;;;;;;;10.35;9.35;;;;;;;8.41;100.00;95820.56;1039920;28;20389;-47
2021/04/12 01:24:57;;;;;;;10.70;9.68;;;;;;;8.43;100.00;95821.16;1041483;28;20025;-47
2021/04/12 01:25:39;;;;;;;10.20;9.23;;;;;;;8.43;100.00;95823.00;1028788;28;20026;-47
2021/04/12 01:26:43;;;;;;;9.73;8.82;;;;;;;8.27;100.00;95821.41;1028818;28;20131;-48
2021/04/12 01:27:45;;;;;;;10.38;9.38;;;;;;;8.21;100.00;95827.41;1024797;29;20073;-46
2021/04/12 01:28:51;;;;;;;10.70;9.60;;;;;;;8.30;100.00;95829.72;1024899;29;20532;-47
2021/04/12 01:30:02;;;;;;;10.30;9.30;;;;;;;8.30;100.00;95828.91;1028892;28;20488;-47
2021/04/12 01:30:57;;;;;;;10.07;9.15;;;;;;;8.34;100.00;95827.53;1020752;29;20079;-47
2021/04/12 01:31:46;;;;;;;9.88;8.77;;;;;;;8.34;100.00;95828.34;1028756;28;20046;-49
2021/04/12 01:32:34;;;;;;;9.27;8.30;;;;;;;8.27;100.00;95826.66;1029062;28;20035;-48
2021/04/12 01:33:11;;;;;;;10.35;9.35;;;;;;;8.25;100.00;95828.69;1025070;29;20027;-47
2021/04/12 01:34:23;;;;;;;10.30;9.30;;;;;;;8.39;100.00;95829.59;1024978;29;20091;-48
2021/04/12 01:35:21;;;;;;;9.98;8.98;;;;;;;8.30;100.00;95834.16;1027089;28;20057;-46
2021/04/12 01:36:10;;;;;;;9.38;8.48;;;;;;;8.29;100.00;95827.28;1029152;28;20054;-48
2021/04/12 01:36:43;;;;;;;9.23;8.32;;;;;;;8.22;100.00;95829.06;1029065;28;20082;-50
2021/04/12 01:37:51;;;;;;;9.90;9.00;;;;;;;8.11;100.00;95812.81;1028702;28;20030;-46
2021/04/12 01:38:22;;;;;;;9.95;9.00;;;;;;;8.10;100.00;95824.28;1028764;28;20094;-47
2021/04/12 01:39:15;;;;;;;10.48;9.48;;;;;;;8.11;100.00;95822.50;1024742;29;20118;-47
2021/04/12 01:39:52;;;;;;;9.55;8.65;;;;;;;8.07;100.00;95823.84;1014970;29;20032;-46
2021/04/12 01:40:56;;;;;;;10.25;9.25;;;;;;;8.07;100.00;95822.03;1024726;29;20470;-48
2021/04/12 01:41:55;;;;;;;9.52;8.63;;;;;;;8.04;100.00;95817.16;1028795;28;20018;-47
2021/04/12 01:42:53;;;;;;;10.30;9.30;;;;;;;8.03;100.00;95817.34;1024986;28;20038;-47
2021/04/12 01:43:39;;;;;;;9.60;8.70;;;;;;;7.87;100.00;95815.78;1024998;29;20118;-47
2021/04/12 01:44:25;;;;;;;10.18;9.10;;;;;;;7.93;100.00;95823.72;1022861;29;20115;-48
2021/04/12 01:45:15;;;;;;;9.82;8.90;;;;;;;7.85;100.00;95823.00;1020950;29;20035;-48
2021/04/12 01:45:48;;;;;;;10.10;9.10;;;;;;;7.96;100.00;95822.53;1021734;29;20023;-46
2021/04/12 01:46:21;;;;;;;10.35;8.88;;;;;;;7.87;100.00;95819.22;1020969;29;20544;-48
2021/04/12 01:47:04;;;;;;;9.88;8.98;;;;;;;7.89;100.00;95819.84;1024185;29;20558;-47
2021/04/12 01:47:43;;;;;;;9.60;8.70;;;;;;;7.89;100.00;95821.66;1024993;29;20070;-47
2021/04/12 01:48:41;;;;;;;9.32;8.43;;;;;;;7.93;100.00;95823.72;1024625;28;20035;-48
2021/04/12 01:49:33;;;;;;;9.35;8.35;;;;;;;7.86;100.00;95822.81;1025062;29;20027;-49
2021/04/12 01:50:30;;;;;;;9.07;8.18;;;;;;;7.93;100.00;95828.97;1027910;28;20040;-46
2021/04/12 01:51:19;;;;;;;7.93;7.07;;;;;;;7.93;100.00;95828.16;1026898;28;20027;-47
2021/04/12 01:52:11;;;;;;;8.82;7.90;;;;;;;7.91;100.00;95828.34;1020109;29;20027;-46
2021/04/12 01:53:00;;;;;;;7.85;7.05;;;;;;;7.96;100.00;95833.03;1020873;29;20091;-47
2021/04/12 01:54:00;;;;;;;7.78;7.00;;;;;;;7.99;100.00;95828.22;1023431;29;20059;-47
2021/04/12 01:55:02;;;;;;;6.90;6.20;;;;;;;7.99;100.00;95830.03;1020785;29;20118;-48
2021/04/12 01:56:10;;;;;;;6.88;6.18;;;;;;;7.96;100.00;95830.41;1020954;29;20055;-46
2021/04/12 01:57:11;;;;;;;7.20;5.97;;;;;;;7.93;100.00;95838.66;1025042;29;20027;-47
2021/04/12 01:58:03;;;;;;;6.72;6.03;;;;;;;7.93;100.00;95831.59;1028954;28;20134;-46
2021/04/12 01:58:41;;;;;;;7.07;6.38;;;;;;;7.82;100.00;95834.69;1028732;28;20134;-49
2021/04/12 01:59:48;;;;;;;6.32;5.72;;;;;;;7.75;100.00;95839.03;1025042;29;20031;-48
2021/04/12 02:00:30;;;;;;;6.95;6.25;;;;;;;7.66;100.00;95835.72;1035259;28;20028;-48
2021/04/12 02:01:09;;;;;;;7.15;6.45;;;;;;;7.50;100.00;95839.38;1041430;28;20013;-48
2021/04/12 02:02:10;;;;;;;7.20;6.50;;;;;;;7.53;100.00;95844.25;1041581;28;20021;-46
2021/04/12 02:02:51;;;;;;;7.30;6.45;;;;;;;7.45;100.00;95853.00;1041668;28;20026;-48
2021/04/12 02:03:32;;;;;;;7.20;6.50;;;;;;;7.43;100.00;95844.50;1041251;28;20104;-47
2021/04/12 02:04:26;;;;;;;6.88;6.18;;;;;;;7.39;100.00;95852.91;1041072;28;20357;-47
2021/04/12 02:05:03;;;;;;;6.50;5.72;;;;;;;7.39;100.00;95853.72;1040626;28;20029;-48
2021/04/12 02:06:09;;;;;;;6.70;6.00;;;;;;;7.52;100.00;95847.03;1041524;28;20010;-46
2021/04/12 02:07:08;;;;;;;6.20;5.60;;;;;;;7.56;100.00;95848.28;1041399;28;20499;-47
2021/04/12 02:07:51;;;;;;;7.10;5.60;;;;;;;7.43;100.00;95849.75;1036779;28;20472;-46
2021/04/12 02:08:49;;;;;;;6.95;4.90;;;;;;;7.33;100.00;95856.25;1039153;28;20036;-47
2021/04/12 02:09:29;;;;;;;5.07;4.55;;;;;;;7.39;100.00;95850.28;1041187;28;20395;-48
2021/04/12 02:10:31;;;;;;;5.40;4.65;;;;;;;7.11;100.00;95846.50;1041537;28;20539;-47
2021/04/12 02:11:12;;;;;;;5.93;4.65;;;;;;;6.92;100.00;95853.09;1041048;28;20025;-47
2021/04/12 02:11:43;;;;;;;;;;;;;;;7.00;100.00;95859.22;1041584;28;20499;-47
2021/04/12 02:12:32;;;;;;;5.70;5.03;;;;;;;7.06;100.00;95853.25;1037177;28;19977;-47
2021/04/12 02:13:28;;;;;;;5.15;4.55;;;;;;;7.02;100.00;95852.81;1029035;28;20026;-47
2021/04/12 02:14:18;;;;;;;5.35;4.65;;;;;;;7.05;100.00;95849.84;1031103;28;20058;-47
2021/04/12 02:14:55;;;;;;;5.25;4.28;;;;;;;6.98;100.00;95858.59;1033857;28;20076;-46
2021/04/12 02:16:01;;;;;;;5.50;4.53;;;;;;;6.93;100.00;95861.75;1030746;28;20027;-48
2021/04/12 02:17:02;;;;;;;6.20;5.32;;;;;;;6.94;100.00;95872.03;1034721;28;20026;-47
2021/04/12 02:18:04;;;;;;;6.32;5.10;;;;;;;6.85;100.00;95862.63;1041410;28;20017;-47
2021/04/12 02:18:46;;;;;;;6.30;5.10;;;;;;;6.87;100.00;95862.44;1041287;28;20026;-46
2021/04/12 02:19:22;;;;;;;5.72;5.07;;;;;;;6.95;100.00;95872.84;1041156;28;20021;-46
2021/04/12 02:20:08;;;;;;;5.70;5.07;;;;;;;6.94;100.00;95864.19;1041182;28;20075;-46
2021/04/12 02:20:48;;;;;;;6.15;5.20;;;;;;;6.86;100.00;95864.28;1040982;28;20073;-47
2021/04/12 02:21:32;;;;;;;;;;;;;;;6.84;100.00;95870.66;1041467;28;20159;-47
2021/04/12 02:22:23;;;;;;;5.95;5.35;;;;;;;6.83;100.00;95869.03;1041168;28;19912;-48
2021/04/12 02:23:19;;;;;;;6.25;5.60;;;;;;;6.83;100.00;95869.84;1041992;28;20025;-47
2021/04/12 02:24:21;;;;;;;7.72;5.93;;;;;;;6.70;100.00;95875.69;1041141;28;20025;-48
2021/04/12 02:25:29;;;;;;;6.30;5.45;;;;;;;6.73;100.00;95871.91;1041363;28;20025;-46
2021/04/12 02:26:33;;;;;;;6.70;5.97;;;;;;;6.81;100.00;95877.06;1041208;28;20017;-48
2021/04/12 02:27:13;;;;;;;7.07;6.32;;;;;;;6.67;100.00;95876.03;1037150;28;20025;-47
2021/04/12 02:28:06;;;;;;;6.65;5.95;;;;;;;6.69;100.00;95879.28;1032410;28;20018;-48
2021/04/12 02:28:49;;;;;;;6.47;5.70;;;;;;;6.76;100.00;95882.00;1035119;28;20261;-47
2021/04/12 02:29:32;;;;;;;6.70;6.00;;;;;;;6.65;100.00;95872.78;1034842;28;20021;-46
2021/04/12 02:30:07;;;;;;;6.90;6.20;;;;;;;6.66;100.00;95879.63;1032873;28;20109;-46
2021/04/12 02:31:22;;;;;;;7.20;6.50;;;;;;;6.56;100.00;95885.13;1032980;28;20060;-49
2021/04/12 02:32:30;;;;;;;7.55;6.75;;;;;;;6.54;100.00;95884.50;1043739;28;20037;-47
2021/04/12 02:33:35;;;;;;;7.40;6.60;;;;;;;6.55;100.00;95887.91;1041061;28;20101;-46
2021/04/12 02:34:31;;;;;;;7.10;6.40;;;;;;;6.47;100.00;95890.56;1045320;28;20024;-49
2021/04/12 02:35:36;;;;;;;7.50;6.70;;;;;;;6.48;100.00;95892.19;1045249;28;20095;-50
2021/04/12 02:36:11;;;;;;;7.50;6.75;;;;;;;6.57;100.00;95901.63;1041151;28;20479;-46
2021/04/12 02:37:20;;;;;;;7.35;6.55;;;;;;;6.39;100.00;95894.88;1036881;28;20022;-49
2021/04/12 02:38:00;;;;;;;7.13;6.43;;;;;;;6.36;100.00;95899.63;1038762;28;20104;-47
2021/04/12 02:38:41;;;;;;;7.40;6.70;;;;;;;6.49;100.00;95899.88;1041260;28;20025;-48
2021/04/12 02:39:49;;;;;;;7.93;7.13;;;;;;;6.47;100.00;95901.03;1040911;28;20515;-47
2021/04/12 02:40:51;;;;;;;6.60;5.82;;;;;;;6.34;100.00;95907.66;1040709;28;20021;-48
2021/04/12 02:42:04;;;;;;;7.63;6.82;;;;;;;6.39;100.00;95900.13;1041095;28;20025;-47
2021/04/12 02:42:37;;;;;;;7.93;7.10;;;;;;;6.36;100.00;95908.31;1041109;28;20075;-47
2021/04/12 02:43:40;;;;;;;8.23;7.43;;;;;;;6.42;100.00;95903.38;1040952;28;20029;-47
2021/04/12 02:44:35;;;;;;;8.50;7.03;;;;;;;6.29;100.00;95912.59;1042303;28;20059;-46
2021/04/12 02:45:26;;;;;;;7.22;6.53;;;;;;;6.23;100.00;95908.06;1041034;28;20029;-46
2021/04/12 02:46:20;;;;;;;6.72;6.03;;;;;;;6.15;100.00;95902.88;1032625;28;20098;-46
2021/04/12 02:47:00;;;;;;;7.45;6.72;;;;;;;6.01;100.00;95907.88;1032539;28;20206;-47
2021/04/12 02:47:38;;;;;;;6.53;5.85;;;;;;;6.04;100.00;95906.69;1029135;28;20025;-46
2021/04/12 02:48:37;;;;;;;6.63;5.95;;;;;;;6.13;100.00;95907.47;1028828;28;20038;-47
2021/04/12 02:49:32;;;;;;;6.72;6.07;;;;;;;6.01;100.00;95907.88;1033362;28;20026;-49
2021/04/12 02:50:43;;;;;;;6.50;5.90;;;;;;;6.07;100.00;95911.56;1040162;28;20021;-49
2021/04/12 02:51:34;;;;;;;6.32;5.60;;;;;;;6.16;100.00;95909.75;1040806;28;20044;-49
2021/04/12 02:52:29;;;;;;;6.30;5.70;;;;;;;6.20;100.00;95916.25;1041180;28;20025;-49
2021/04/12 02:53:18;;;;;;;6.15;5.53;;;;;;;6.02;100.00;95919.94;1041149;28;20025;-47
2021/04/12 02:54:26;;;;;;;5.72;5.13;;;;;;;5.95;100.00;95908.53;1041184;28;20360;-48
2021/04/12 02:55:34;;;;;;;6.25;5.53;;;;;;;6.02;100.00;95911.28;1040912;28;20079;-48
2021/04/12 02:56:29;;;;;;;6.55;5.85;;;;;;;6.04;100.00;95911.91;1041393;28;20116;-47
2021/04/12 02:57:08;;;;;;;6.93;5.47;;;;;;;6.03;100.00;95918.97;1040938;28;20104;-47
2021/04/12 02:58:24;;;;;;;5.68;5.07;;;;;;;5.96;100.00;95915.38;1040808;28;20067;-48
2021/04/12 02:59:17;;;;;;;5.72;5.10;;;;;;;5.97;100.00;95917.03;1040612;28;20112;-48
2021/04/12 03:00:04;;;;;;;6.00;5.40;;;;;;;5.90;100.00;95921.28;1040907;28;20029;-48
2021/04/12 03:00:52;;;;;;;6.75;6.05;;;;;;;5.65;100.00;95924.00;1040824;28;20036;-46
2021/04/12 03:01:30;;;;;;;6.20;5.60;;;;;;;5.66;100.00;95923.03;1040577;28;20037;-48
2021/04/12 03:02:35;;;;;;;5.78;5.18;;;;;;;5.66;100.00;95930.84;1036514;28;20049;-47
2021/04/12 03:03:31;;;;;;;6.25;5.65;;;;;;;5.68;100.00;95934.09;1036626;28;20034;-46
2021/04/12 03:04:24;;;;;;;5.90;5.30;;;;;;;5.74;100.00;95935.25;1036838;28;20036;-45
2021/04/12 03:05:18;;;;;;;6.40;5.53;;;;;;;5.76;100.00;95935.88;1036631;28;20085;-49
2021/04/12 03:06:10;;;;;;;5.80;5.20;;;;;;;5.74;100.00;95937.84;1042514;28;20104;-51
2021/04/12 03:07:24;;;;;;;6.65;5.45;;;;;;;5.46;100.00;95937.44;1040708;28;20026;-47
2021/04/12 03:08:23;;;;;;;5.32;4.80;;;;;;;5.47;100.00;95933.84;1036769;28;20044;-47
2021/04/12 03:09:06;;;;;;;5.57;4.97;;;;;;;5.47;100.00;95939.06;1036849;28;20026;-47
2021/04/12 03:09:48;;;;;;;5.80;5.20;;;;;;;5.39;100.00;95952.97;1038446;28;20041;-47
2021/04/12 03:10:37;;;;;;;5.90;5.30;;;;;;;5.25;100.00;95935.38;1042383;28;20036;-50
2021/04/12 03:11:13;;;;;;;6.30;5.70;;;;;;;5.19;100.00;95943.84;1044910;28;20029;-47
2021/04/12 03:11:56;;;;;;;6.88;5.72;;;;;;;5.24;100.00;95945.00;1040952;28;20515;-47
2021/04/12 03:12:38;;;;;;;6.80;6.10;;;;;;;5.13;100.00;95942.72;1040679;28;20365;-47
2021/04/12 03:13:39;;;;;;;6.45;5.70;;;;;;;5.00;100.00;95947.66;1040742;28;20036;-46
2021/04/12 03:14:39;;;;;;;7.55;6.85;;;;;;;4.96;100.00;95944.53;1038537;28;20044;-46
2021/04/12 03:15:43;;;;;;;6.80;6.00;;;;;;;5.08;100.00;95952.84;1037040;28;20544;-47
2021/04/12 03:16:52;;;;;;;6.15;5.55;;;;;;;5.23;100.00;95951.19;1041086;28;20108;-47
2021/04/12 03:18:01;;;;;;;7.10;6.40;;;;;;;5.02;100.00;95956.91;1041379;28;20034;-46
2021/04/12 03:18:49;;;;;;;6.53;5.78;;;;;;;5.00;100.00;95958.09;1040666;28;20113;-50
2021/04/12 03:19:42;;;;;;;6.53;5.85;;;;;;;4.93;100.00;95963.94;1036510;28;20101;-47
2021/04/12 03:20:22;;;;;;;6.38;5.60;;;;;;;4.98;100.00;95969.50;1032149;28;20034;-46
2021/04/12 03:21:07;;;;;;;5.95;5.35;;;;;;;5.08;100.00;95964.09;1032784;28;20047;-46
2021/04/12 03:21:56;;;;;;;6.35;5.75;;;;;;;4.98;100.00;95966.88;1044940;28;20465;-47
2021/04/12 03:22:48;;;;;;;6.60;5.93;;;;;;;5.07;100.00;95966.88;1040770;28;20057;-45
2021/04/12 03:23:23;;;;;;;6.13;5.53;;;;;;;5.05;100.00;95977.47;1036083;28;20334;-47
2021/04/12 03:24:13;;;;;;;6.82;6.13;;;;;;;4.98;100.00;95977.31;1036634;28;20020;-46
2021/04/12 03:25:01;;;;;;;5.94;5.34;;;;;;;5.03;100.00;95971.59;1038770;28;20062;-46
2021/04/12 03:25:50;;;;;;;6.05;5.45;;;;;;;5.01;100.00;95980.56;1036669;28;20036;-47
2021/04/12 03:26:54;;;;;;;6.22;5.63;;;;;;;4.85;100.00;95976.19;1038362;28;20022;-46
2021/04/12 03:27:43;;;;;;;8.93;5.95;;;;;;;4.74;100.00;95983.34;1040999;28;20090;-46
2021/04/12 03:28:36;;;;;;;6.55;5.85;;;;;;;4.81;100.00;95986.09;1040957;28;20045;-47
2021/04/12 03:29:21;;;;;;;6.88;6.00;;;;;;;4.90;100.00;95982.53;1041143;28;20272;-46
2021/04/12 03:30:14;;;;;;;6.68;5.97;;;;;;;4.89;100.00;95983.53;1041021;28;20026;-46
2021/04/12 03:31:02;;;;;;;6.50;5.50;;;;;;;4.76;100.00;95981.38;1036719;28;20033;-47
2021/04/12 03:31:55;;;;;;;6.53;5.82;;;;;;;4.84;100.00;95988.38;1036823;28;20492;-46
2021/04/12 03:32:34;;;;;;;7.63;6.00;;;;;;;4.76;100.00;95983.19;1039294;28;20480;-46
2021/04/12 03:33:37;;;;;;;6.53;5.78;;;;;;;4.69;100.00;95984.81;1040972;28;20025;-46
2021/04/12 03:34:29;;;;;;;6.75;5.85;;;;;;;4.77;100.00;95990.84;1038058;28;20030;-46
2021/04/12 03:35:38;;;;;;;6.65;5.80;;;;;;;4.84;100.00;95988.38;1040691;28;20145;-46
2021/04/12 03:36:24;;;;;;;6.55;5.70;;;;;;;4.85;100.00;95982.22;1039888;28;20542;-46
2021/04/12 03:36:57;;;;;;;6.50;5.90;;;;;;;4.83;100.00;95992.00;1040772;28;20136;-47
2021/04/12 03:37:39;;;;;;;6.50;5.85;;;;;;;4.84;100.00;95988.38;1040807;28;20025;-46
2021/04/12 03:38:38;;;;;;;7.55;5.57;;;;;;;4.81;100.00;95993.94;1036523;28;20065;-46
2021/04/12 03:39:14;;;;;;;5.95;5.28;;;;;;;4.80;100.00;95992.31;1033641;28;20034;-47
2021/04/12 03:39:50;;;;;;;6.18;5.55;;;;;;;4.84;100.00;95992.81;1032845;28;20448;-46
2021/04/12 03:40:29;;;;;;;6.50;5.45;;;;;;;4.74;100.00;95990.38;1036508;28;20025;-46
2021/04/12 03:41:36;;;;;;;6.00;4.90;;;;;;;4.80;100.00;95992.31;1039267;28;20132;-46
2021/04/12 03:42:25;;;;;;;5.85;5.20;;;;;;;4.73;100.00;95993.94;1040743;28;20025;-44
2021/04/12 03:43:18;;;;;;;5.05;4.55;;;;;;;4.48;100.00;95993.91;1040981;28;20109;-46
2021/04/12 03:44:33;;;;;;;5.22;4.72;;;;;;;4.15;100.00;96004.25;1041084;28;20029;-46
2021/04/12 03:45:22;;;;;;;6.05;3.72;;;;;;;4.11;100.00;95996.91;1040515;28;20036;-46
2021/04/12 03:46:10;;;;;;;4.25;3.78;;;;;;;3.95;100.00;96008.06;1036274;28;20021;-47
2021/04/12 03:47:02;;;;;;;5.93;3.60;;;;;;;3.68;100.00;96007.28;1038349;28;20396;-44
2021/04/12 03:47:44;;;;;;;4.93;3.78;;;;;;;3.79;100.00;96009.63;1040855;28;20108;-46
2021/04/12 03:48:27;;;;;;;4.22;3.65;;;;;;;3.69;100.00;96007.13;1040377;28;20036;-46
2021/04/12 03:49:24;;;;;;;6.22;3.50;;;;;;;3.56;100.00;96010.16;1040864;28;20064;-47
2021/04/12 03:50:18;;;;;;;4.82;3.78;;;;;;;3.73;100.00;96005.88;1040559;28;20022;-53
2021/04/12 03:50:59;;;;;;;4.20;3.25;;;;;;;3.56;100.00;96010.16;1036356;28;20026;-47
2021/04/12 03:51:43;;;;;;;3.70;3.00;;;;;;;3.54;100.00;96019.91;1036582;28;20029;-46
2021/04/12 03:52:26;;;;;;;3.50;2.92;;;;;;;3.59;100.00;96024.66;1036987;28;20034;-48
2021/04/12 03:53:34;;;;;;;4.68;2.78;;;;;;;3.53;100.00;96022.66;1040521;28;20112;-47
2021/04/12 03:54:36;;;;;;;4.22;2.53;;;;;;;3.17;100.00;96025.34;1039485;28;20495;-47
2021/04/12 03:56:00;;;;;;;3.10;2.33;;;;;;;3.04;100.00;96033.53;1041782;28;20130;-46
2021/04/12 03:56:38;;;;;;;3.28;2.65;;;;;;;3.22;100.00;96025.72;1036520;28;20113;-45
2021/04/12 03:57:31;;;;;;;3.30;2.60;;;;;;;3.22;100.00;96023.13;1032461;28;20039;-45
2021/04/12 03:58:27;;;;;;;3.63;2.92;;;;;;;3.22;100.00;96027.50;1031461;28;20034;-48